sensor_id;sensor_type;location;lat;lon;timestamp;P1;durP1;ratioP1;P2;durP2;ratioP2
27039;SDS011;14589;51.578;7.306;2023-04-08T05:00:37;4.38;;;3.00;;
27039;SDS011;14589;51.578;7.306;2023-04-08T05:03:07;6.07;;;3.70;;
27039;SDS011;14589;51.578;7.306;2023-04-08T05:05:38;5.45;;;2.92;;
27039;SDS011;14589;51.578;7.306;2023-04-08T05:08:08;5.30;;;3.15;;
27039;SDS011;14589;51.578;7.306;2023-04-08T05:10:39;5.20;;;3.55;;
27039;SDS011;14589;51.578;7.306;2023-04-08T05:13:11;5.63;;;3.30;;
27039;SDS011;14589;51.578;7.306;2023-04-08T05:15:41;4.68;;;3.20;;
27039;SDS011;14589;51.578;7.306;2023-04-08T05:18:12;5.45;;;2.75;;
27039;SDS011;14589;51.578;7.306;2023-04-08T05:20:42;4.75;;;2.13;;
27039;SDS011;14589;51.578;7.306;2023-04-08T05:23:13;4.72;;;3.13;;
27039;SDS011;14589;51.578;7.306;2023-04-08T05:25:43;5.50;;;4.07;;
27039;SDS011;14589;51.578;7.306;2023-04-08T05:28:13;4.03;;;3.00;;
27039;SDS011;14589;51.578;7.306;2023-04-08T05:30:50;6.45;;;4.28;;
27039;SDS011;14589;51.578;7.306;2023-04-08T05:33:21;6.30;;;3.47;;
27039;SDS011;14589;51.578;7.306;2023-04-08T05:35:52;5.82;;;3.20;;
27039;SDS011;14589;51.578;7.306;2023-04-08T05:38:22;6.05;;;3.75;;
27039;SDS011;14589;51.578;7.306;2023-04-08T05:40:52;4.97;;;2.33;;
27039;SDS011;14589;51.578;7.306;2023-04-08T05:43:23;5.45;;;3.88;;
27039;SDS011;14589;51.578;7.306;2023-04-08T05:45:53;7.50;;;3.90;;
27039;SDS011;14589;51.578;7.306;2023-04-08T05:48:24;7.40;;;3.85;;
27039;SDS011;14589;51.578;7.306;2023-04-08T05:50:54;6.32;;;4.40;;
27039;SDS011;14589;51.578;7.306;2023-04-08T05:53:25;6.70;;;4.78;;
27039;SDS011;14589;51.578;7.306;2023-04-08T05:55:55;7.13;;;3.97;;
27039;SDS011;14589;51.578;7.306;2023-04-08T05:58:25;7.97;;;4.28;;
27039;SDS011;14589;51.578;7.306;2023-04-08T06:00:56;7.78;;;4.78;;
27039;SDS011;14589;51.578;7.306;2023-04-08T06:03:26;8.27;;;5.80;;
27039;SDS011;14589;51.578;7.306;2023-04-08T06:05:56;7.63;;;4.55;;
27039;SDS011;14589;51.578;7.306;2023-04-08T06:08:27;7.55;;;5.00;;
27039;SDS011;14589;51.578;7.306;2023-04-08T06:10:57;11.55;;;6.57;;
27039;SDS011;14589;51.578;7.306;2023-04-08T06:13:28;10.50;;;5.80;;
27039;SDS011;14589;51.578;7.306;2023-04-08T06:15:58;7.85;;;5.43;;
27039;SDS011;14589;51.578;7.306;2023-04-08T06:18:39;12.93;;;8.00;;
27039;SDS011;14589;51.578;7.306;2023-04-08T06:21:10;14.65;;;7.10;;
27039;SDS011;14589;51.578;7.306;2023-04-08T06:23:40;17.88;;;8.80;;
27039;SDS011;14589;51.578;7.306;2023-04-08T06:26:11;16.65;;;8.65;;
27039;SDS011;14589;51.578;7.306;2023-04-08T06:28:42;13.20;;;7.35;;
27039;SDS011;14589;51.578;7.306;2023-04-08T06:31:13;12.57;;;8.38;;
27039;SDS011;14589;51.578;7.306;2023-04-08T06:33:43;15.30;;;7.43;;
27039;SDS011;14589;51.578;7.306;2023-04-08T06:36:13;11.70;;;6.85;;
27039;SDS011;14589;51.578;7.306;2023-04-08T06:38:44;11.68;;;6.45;;
27039;SDS011;14589;51.578;7.306;2023-04-08T06:41:14;12.38;;;7.32;;
27039;SDS011;14589;51.578;7.306;2023-04-08T06:43:45;10.00;;;6.38;;
27039;SDS011;14589;51.578;7.306;2023-04-08T06:46:15;10.30;;;6.65;;
27039;SDS011;14589;51.578;7.306;2023-04-08T06:48:45;12.30;;;7.40;;
27039;SDS011;14589;51.578;7.306;2023-04-08T06:51:16;11.57;;;7.65;;
27039;SDS011;14589;51.578;7.306;2023-04-08T06:53:46;12.50;;;6.80;;
27039;SDS011;14589;51.578;7.306;2023-04-08T06:56:17;9.48;;;6.65;;
27039;SDS011;14589;51.578;7.306;2023-04-08T06:58:47;11.63;;;7.70;;
27039;SDS011;14589;51.578;7.306;2023-04-08T07:01:18;11.40;;;6.72;;
27039;SDS011;14589;51.578;7.306;2023-04-08T07:03:48;10.77;;;6.63;;
27039;SDS011;14589;51.578;7.306;2023-04-08T07:06:18;12.43;;;6.93;;
27039;SDS011;14589;51.578;7.306;2023-04-08T07:08:49;12.25;;;7.28;;
27039;SDS011;14589;51.578;7.306;2023-04-08T07:11:19;12.05;;;8.20;;
27039;SDS011;14589;51.578;7.306;2023-04-08T07:13:50;11.02;;;6.55;;
27039;SDS011;14589;51.578;7.306;2023-04-08T07:16:21;9.98;;;5.63;;
27039;SDS011;14589;51.578;7.306;2023-04-08T07:18:51;8.93;;;5.38;;
27039;SDS011;14589;51.578;7.306;2023-04-08T07:21:22;9.00;;;5.22;;
27039;SDS011;14589;51.578;7.306;2023-04-08T07:23:53;8.18;;;5.63;;
27039;SDS011;14589;51.578;7.306;2023-04-08T07:26:23;8.57;;;5.38;;
27039;SDS011;14589;51.578;7.306;2023-04-08T07:28:53;11.43;;;6.38;;
27039;SDS011;14589;51.578;7.306;2023-04-08T07:31:24;10.15;;;5.63;;
27039;SDS011;14589;51.578;7.306;2023-04-08T07:33:54;11.05;;;7.75;;
27039;SDS011;14589;51.578;7.306;2023-04-08T07:36:24;13.38;;;10.02;;
27039;SDS011;14589;51.578;7.306;2023-04-08T07:38:55;13.25;;;7.25;;
27039;SDS011;14589;51.578;7.306;2023-04-08T07:41:25;10.65;;;6.90;;
27039;SDS011;14589;51.578;7.306;2023-04-08T07:43:56;10.30;;;5.93;;
27039;SDS011;14589;51.578;7.306;2023-04-08T07:46:26;10.93;;;6.05;;
27039;SDS011;14589;51.578;7.306;2023-04-08T07:48:56;9.43;;;4.78;;
27039;SDS011;14589;51.578;7.306;2023-04-08T07:51:27;9.23;;;4.53;;
27039;SDS011;14589;51.578;7.306;2023-04-08T07:53:58;9.93;;;5.82;;
27039;SDS011;14589;51.578;7.306;2023-04-08T07:56:28;8.27;;;5.05;;
27039;SDS011;14589;51.578;7.306;2023-04-08T07:58:59;8.32;;;5.13;;
27039;SDS011;14589;51.578;7.306;2023-04-08T08:01:29;9.20;;;5.22;;
27039;SDS011;14589;51.578;7.306;2023-04-08T08:04:00;8.48;;;4.90;;
27039;SDS011;14589;51.578;7.306;2023-04-08T08:06:31;9.15;;;4.28;;
27039;SDS011;14589;51.578;7.306;2023-04-08T08:09:01;11.63;;;6.78;;
27039;SDS011;14589;51.578;7.306;2023-04-08T08:11:31;9.77;;;5.38;;
27039;SDS011;14589;51.578;7.306;2023-04-08T08:14:02;10.48;;;5.60;;
27039;SDS011;14589;51.578;7.306;2023-04-08T08:16:33;9.45;;;6.40;;
27039;SDS011;14589;51.578;7.306;2023-04-08T08:19:03;8.93;;;5.05;;
27039;SDS011;14589;51.578;7.306;2023-04-08T08:24:06;7.30;;;4.85;;
27039;SDS011;14589;51.578;7.306;2023-04-08T08:26:37;8.63;;;5.10;;
27039;SDS011;14589;51.578;7.306;2023-04-08T08:29:07;10.30;;;5.82;;
27039;SDS011;14589;51.578;7.306;2023-04-08T08:31:37;8.25;;;4.80;;
27039;SDS011;14589;51.578;7.306;2023-04-08T08:34:08;7.38;;;4.68;;
27039;SDS011;14589;51.578;7.306;2023-04-08T08:36:38;9.40;;;4.15;;
27039;SDS011;14589;51.578;7.306;2023-04-08T08:39:08;9.38;;;5.30;;
27039;SDS011;14589;51.578;7.306;2023-04-08T08:41:39;7.93;;;4.85;;
27039;SDS011;14589;51.578;7.306;2023-04-08T08:44:10;10.20;;;5.63;;
27039;SDS011;14589;51.578;7.306;2023-04-08T08:46:42;10.32;;;5.68;;
27039;SDS011;14589;51.578;7.306;2023-04-08T08:49:14;11.13;;;5.93;;
27039;SDS011;14589;51.578;7.306;2023-04-08T08:51:44;9.10;;;5.15;;
27039;SDS011;14589;51.578;7.306;2023-04-08T08:54:16;9.35;;;5.13;;
27039;SDS011;14589;51.578;7.306;2023-04-08T08:56:46;11.70;;;5.47;;
27039;SDS011;14589;51.578;7.306;2023-04-08T08:59:18;9.82;;;4.97;;
27039;SDS011;14589;51.578;7.306;2023-04-08T09:01:48;9.55;;;4.72;;
27039;SDS011;14589;51.578;7.306;2023-04-08T09:04:19;8.70;;;4.93;;
27039;SDS011;14589;51.578;7.306;2023-04-08T09:07:07;9.75;;;5.72;;
27039;SDS011;14589;51.578;7.306;2023-04-08T09:09:49;8.20;;;4.47;;
27039;SDS011;14589;51.578;7.306;2023-04-08T09:12:21;8.65;;;5.75;;
27039;SDS011;14589;51.578;7.306;2023-04-08T09:15:05;7.80;;;4.38;;
27039;SDS011;14589;51.578;7.306;2023-04-08T09:17:37;8.57;;;4.75;;
27039;SDS011;14589;51.578;7.306;2023-04-08T09:20:12;8.35;;;5.50;;
27039;SDS011;14589;51.578;7.306;2023-04-08T09:25:29;8.48;;;4.97;;
27039;SDS011;14589;51.578;7.306;2023-04-08T09:28:03;8.55;;;5.55;;
27039;SDS011;14589;51.578;7.306;2023-04-08T09:30:34;8.68;;;4.90;;
27039;SDS011;14589;51.578;7.306;2023-04-08T09:33:04;8.35;;;5.05;;
27039;SDS011;14589;51.578;7.306;2023-04-08T09:35:36;8.15;;;5.05;;
27039;SDS011;14589;51.578;7.306;2023-04-08T09:38:06;7.30;;;4.85;;
27039;SDS011;14589;51.578;7.306;2023-04-08T09:40:37;7.32;;;4.18;;
27039;SDS011;14589;51.578;7.306;2023-04-08T09:43:10;7.93;;;4.60;;
27039;SDS011;14589;51.578;7.306;2023-04-08T09:45:43;8.02;;;4.10;;
27039;SDS011;14589;51.578;7.306;2023-04-08T09:48:21;9.30;;;5.30;;
27039;SDS011;14589;51.578;7.306;2023-04-08T09:50:56;9.23;;;4.10;;
27039;SDS011;14589;51.578;7.306;2023-04-08T09:53:29;9.18;;;5.38;;
27039;SDS011;14589;51.578;7.306;2023-04-08T09:56:16;8.07;;;4.65;;
27039;SDS011;14589;51.578;7.306;2023-04-08T09:58:53;8.48;;;5.28;;
27039;SDS011;14589;51.578;7.306;2023-04-08T10:01:31;8.75;;;5.03;;
27039;SDS011;14589;51.578;7.306;2023-04-08T10:04:10;10.00;;;5.15;;
27039;SDS011;14589;51.578;7.306;2023-04-08T10:06:43;7.35;;;4.35;;
27039;SDS011;14589;51.578;7.306;2023-04-08T10:09:15;9.07;;;4.75;;
27039;SDS011;14589;51.578;7.306;2023-04-08T10:11:45;8.00;;;4.32;;
27039;SDS011;14589;51.578;7.306;2023-04-08T10:14:15;8.13;;;4.32;;
27039;SDS011;14589;51.578;7.306;2023-04-08T10:16:46;9.55;;;4.55;;
27039;SDS011;14589;51.578;7.306;2023-04-08T10:19:36;6.97;;;3.85;;
27039;SDS011;14589;51.578;7.306;2023-04-08T10:27:46;6.68;;;3.78;;
27039;SDS011;14589;51.578;7.306;2023-04-08T10:32:56;6.97;;;3.60;;
27039;SDS011;14589;51.578;7.306;2023-04-08T10:35:31;6.88;;;2.67;;
27039;SDS011;14589;51.578;7.306;2023-04-08T10:38:04;7.95;;;3.72;;
27039;SDS011;14589;51.578;7.306;2023-04-08T10:40:36;5.95;;;2.95;;
27039;SDS011;14589;51.578;7.306;2023-04-08T10:43:08;7.70;;;3.60;;
27039;SDS011;14589;51.578;7.306;2023-04-08T10:45:40;6.78;;;3.25;;
27039;SDS011;14589;51.578;7.306;2023-04-08T10:50:53;6.70;;;4.57;;
27039;SDS011;14589;51.578;7.306;2023-04-08T10:53:34;8.07;;;3.85;;
27039;SDS011;14589;51.578;7.306;2023-04-08T10:58:46;5.90;;;3.50;;
27039;SDS011;14589;51.578;7.306;2023-04-08T11:01:20;5.28;;;2.60;;
27039;SDS011;14589;51.578;7.306;2023-04-08T11:03:51;5.43;;;3.03;;
27039;SDS011;14589;51.578;7.306;2023-04-08T11:06:21;6.05;;;3.33;;
27039;SDS011;14589;51.578;7.306;2023-04-08T11:08:52;6.10;;;3.22;;
27039;SDS011;14589;51.578;7.306;2023-04-08T11:11:26;5.95;;;3.60;;
27039;SDS011;14589;51.578;7.306;2023-04-08T11:13:58;7.72;;;3.10;;
27039;SDS011;14589;51.578;7.306;2023-04-08T11:16:29;26.75;;;9.52;;
27039;SDS011;14589;51.578;7.306;2023-04-08T11:19:02;19.65;;;8.25;;
27039;SDS011;14589;51.578;7.306;2023-04-08T11:21:35;8.93;;;5.05;;
27039;SDS011;14589;51.578;7.306;2023-04-08T11:24:08;15.40;;;7.28;;
27039;SDS011;14589;51.578;7.306;2023-04-08T11:26:41;7.05;;;3.72;;
27039;SDS011;14589;51.578;7.306;2023-04-08T11:29:11;5.38;;;2.58;;
27039;SDS011;14589;51.578;7.306;2023-04-08T11:31:45;7.38;;;3.88;;
27039;SDS011;14589;51.578;7.306;2023-04-08T11:34:21;5.35;;;3.25;;
27039;SDS011;14589;51.578;7.306;2023-04-08T11:36:55;5.95;;;2.80;;
27039;SDS011;14589;51.578;7.306;2023-04-08T11:39:27;5.53;;;2.78;;
27039;SDS011;14589;51.578;7.306;2023-04-08T11:41:57;8.00;;;3.85;;
27039;SDS011;14589;51.578;7.306;2023-04-08T11:44:29;7.72;;;3.75;;
27039;SDS011;14589;51.578;7.306;2023-04-08T11:47:01;6.32;;;3.13;;
27039;SDS011;14589;51.578;7.306;2023-04-08T11:49:44;5.88;;;3.35;;
27039;SDS011;14589;51.578;7.306;2023-04-08T11:52:15;6.07;;;3.80;;
27039;SDS011;14589;51.578;7.306;2023-04-08T11:54:45;4.97;;;3.10;;
27039;SDS011;14589;51.578;7.306;2023-04-08T11:59:57;7.05;;;3.33;;
27039;SDS011;14589;51.578;7.306;2023-04-08T12:02:27;7.30;;;4.72;;
27039;SDS011;14589;51.578;7.306;2023-04-08T12:04:57;6.95;;;4.18;;
27039;SDS011;14589;51.578;7.306;2023-04-08T12:07:28;6.90;;;3.72;;
27039;SDS011;14589;51.578;7.306;2023-04-08T12:09:58;4.75;;;2.85;;
27039;SDS011;14589;51.578;7.306;2023-04-08T12:12:29;5.28;;;3.35;;
27039;SDS011;14589;51.578;7.306;2023-04-08T12:14:59;5.63;;;3.42;;
27039;SDS011;14589;51.578;7.306;2023-04-08T12:17:30;6.32;;;3.53;;
27039;SDS011;14589;51.578;7.306;2023-04-08T12:20:00;5.38;;;3.25;;
27039;SDS011;14589;51.578;7.306;2023-04-08T12:22:31;6.10;;;3.72;;
27039;SDS011;14589;51.578;7.306;2023-04-08T12:25:01;5.68;;;3.17;;
27039;SDS011;14589;51.578;7.306;2023-04-08T12:27:33;5.05;;;3.03;;
27039;SDS011;14589;51.578;7.306;2023-04-08T12:30:03;6.05;;;3.13;;
27039;SDS011;14589;51.578;7.306;2023-04-08T12:32:34;7.22;;;2.97;;
27039;SDS011;14589;51.578;7.306;2023-04-08T12:35:04;7.05;;;3.60;;
27039;SDS011;14589;51.578;7.306;2023-04-08T12:37:35;7.65;;;3.95;;
27039;SDS011;14589;51.578;7.306;2023-04-08T12:40:06;5.38;;;3.38;;
27039;SDS011;14589;51.578;7.306;2023-04-08T12:42:37;6.53;;;3.58;;
27039;SDS011;14589;51.578;7.306;2023-04-08T12:45:07;6.78;;;4.50;;
27039;SDS011;14589;51.578;7.306;2023-04-08T12:47:38;6.82;;;4.28;;
27039;SDS011;14589;51.578;7.306;2023-04-08T12:50:09;8.43;;;4.63;;
27039;SDS011;14589;51.578;7.306;2023-04-08T12:52:39;6.32;;;3.85;;
27039;SDS011;14589;51.578;7.306;2023-04-08T12:55:10;7.18;;;3.97;;
27039;SDS011;14589;51.578;7.306;2023-04-08T12:57:40;7.75;;;5.32;;
27039;SDS011;14589;51.578;7.306;2023-04-08T13:00:11;7.65;;;4.68;;
27039;SDS011;14589;51.578;7.306;2023-04-08T13:02:42;6.00;;;3.97;;
27039;SDS011;14589;51.578;7.306;2023-04-08T13:05:13;8.00;;;4.55;;
27039;SDS011;14589;51.578;7.306;2023-04-08T13:07:44;8.50;;;4.90;;
27039;SDS011;14589;51.578;7.306;2023-04-08T13:10:15;6.32;;;4.32;;
27039;SDS011;14589;51.578;7.306;2023-04-08T13:12:45;8.80;;;3.67;;
27039;SDS011;14589;51.578;7.306;2023-04-08T13:15:16;9.55;;;4.95;;
27039;SDS011;14589;51.578;7.306;2023-04-08T13:17:47;6.70;;;4.40;;
27039;SDS011;14589;51.578;7.306;2023-04-08T13:20:17;6.10;;;4.18;;
27039;SDS011;14589;51.578;7.306;2023-04-08T13:22:48;7.97;;;4.22;;
27039;SDS011;14589;51.578;7.306;2023-04-08T13:25:18;5.55;;;4.40;;
27039;SDS011;14589;51.578;7.306;2023-04-08T13:27:49;7.80;;;4.40;;
27039;SDS011;14589;51.578;7.306;2023-04-08T13:30:19;8.48;;;5.43;;
27039;SDS011;14589;51.578;7.306;2023-04-08T13:32:50;9.10;;;4.80;;
27039;SDS011;14589;51.578;7.306;2023-04-08T13:35:20;8.82;;;5.72;;
27039;SDS011;14589;51.578;7.306;2023-04-08T13:37:50;7.00;;;4.00;;
27039;SDS011;14589;51.578;7.306;2023-04-08T13:40:21;7.13;;;4.43;;
27039;SDS011;14589;51.578;7.306;2023-04-08T13:42:51;8.00;;;4.93;;
27039;SDS011;14589;51.578;7.306;2023-04-08T13:45:22;8.57;;;4.68;;
27039;SDS011;14589;51.578;7.306;2023-04-08T13:47:52;6.78;;;4.75;;
27039;SDS011;14589;51.578;7.306;2023-04-08T13:50:23;7.40;;;4.88;;
27039;SDS011;14589;51.578;7.306;2023-04-08T13:52:53;9.15;;;4.53;;
27039;SDS011;14589;51.578;7.306;2023-04-08T13:55:23;7.68;;;4.20;;
27039;SDS011;14589;51.578;7.306;2023-04-08T13:57:54;9.13;;;4.82;;
27039;SDS011;14589;51.578;7.306;2023-04-08T14:00:25;8.02;;;4.82;;
27039;SDS011;14589;51.578;7.306;2023-04-08T14:02:56;7.43;;;4.40;;
27039;SDS011;14589;51.578;7.306;2023-04-08T14:05:26;9.48;;;4.53;;
27039;SDS011;14589;51.578;7.306;2023-04-08T14:07:56;5.78;;;3.75;;
27039;SDS011;14589;51.578;7.306;2023-04-08T14:10:27;7.82;;;4.35;;
27039;SDS011;14589;51.578;7.306;2023-04-08T14:12:57;10.02;;;4.70;;
27039;SDS011;14589;51.578;7.306;2023-04-08T14:15:27;7.85;;;5.00;;
27039;SDS011;14589;51.578;7.306;2023-04-08T14:17:58;8.48;;;4.53;;
27039;SDS011;14589;51.578;7.306;2023-04-08T14:20:28;8.70;;;4.88;;
27039;SDS011;14589;51.578;7.306;2023-04-08T14:22:59;7.75;;;5.57;;
27039;SDS011;14589;51.578;7.306;2023-04-08T14:25:29;9.20;;;4.60;;
27039;SDS011;14589;51.578;7.306;2023-04-08T14:28:00;8.68;;;5.15;;
27039;SDS011;14589;51.578;7.306;2023-04-08T14:30:30;9.10;;;4.78;;
27039;SDS011;14589;51.578;7.306;2023-04-08T14:33:01;8.02;;;4.30;;
27039;SDS011;14589;51.578;7.306;2023-04-08T14:35:31;8.75;;;5.05;;
27039;SDS011;14589;51.578;7.306;2023-04-08T14:38:02;8.73;;;5.63;;
27039;SDS011;14589;51.578;7.306;2023-04-08T14:40:32;9.95;;;5.65;;
27039;SDS011;14589;51.578;7.306;2023-04-08T14:43:02;9.50;;;4.75;;
27039;SDS011;14589;51.578;7.306;2023-04-08T14:45:33;10.30;;;5.57;;
27039;SDS011;14589;51.578;7.306;2023-04-08T14:48:03;8.60;;;5.15;;
27039;SDS011;14589;51.578;7.306;2023-04-08T14:50:35;8.23;;;5.03;;
27039;SDS011;14589;51.578;7.306;2023-04-08T14:53:05;8.95;;;4.95;;
27039;SDS011;14589;51.578;7.306;2023-04-08T14:55:36;8.63;;;4.60;;
27039;SDS011;14589;51.578;7.306;2023-04-08T14:58:06;8.98;;;4.72;;
27039;SDS011;14589;51.578;7.306;2023-04-08T15:00:36;8.57;;;5.68;;
27039;SDS011;14589;51.578;7.306;2023-04-08T15:03:08;7.90;;;4.72;;
27039;SDS011;14589;51.578;7.306;2023-04-08T15:05:40;9.35;;;6.00;;
27039;SDS011;14589;51.578;7.306;2023-04-08T15:08:11;8.88;;;5.15;;
27039;SDS011;14589;51.578;7.306;2023-04-08T15:10:42;9.95;;;5.38;;
27039;SDS011;14589;51.578;7.306;2023-04-08T15:13:12;8.30;;;4.57;;
27039;SDS011;14589;51.578;7.306;2023-04-08T15:15:43;10.73;;;5.53;;
27039;SDS011;14589;51.578;7.306;2023-04-08T15:18:13;11.18;;;4.53;;
27039;SDS011;14589;51.578;7.306;2023-04-08T15:20:44;8.82;;;5.35;;
27039;SDS011;14589;51.578;7.306;2023-04-08T15:23:14;9.20;;;4.97;;
27039;SDS011;14589;51.578;7.306;2023-04-08T15:25:45;11.35;;;6.78;;
27039;SDS011;14589;51.578;7.306;2023-04-08T15:28:15;8.82;;;4.38;;
27039;SDS011;14589;51.578;7.306;2023-04-08T15:30:45;8.65;;;4.93;;
27039;SDS011;14589;51.578;7.306;2023-04-08T15:33:16;7.28;;;4.18;;
27039;SDS011;14589;51.578;7.306;2023-04-08T15:35:46;7.97;;;4.75;;
27039;SDS011;14589;51.578;7.306;2023-04-08T15:38:17;9.10;;;5.03;;
27039;SDS011;14589;51.578;7.306;2023-04-08T15:40:47;8.82;;;4.35;;
27039;SDS011;14589;51.578;7.306;2023-04-08T15:43:18;9.15;;;4.97;;
27039;SDS011;14589;51.578;7.306;2023-04-08T15:45:48;7.72;;;4.60;;
27039;SDS011;14589;51.578;7.306;2023-04-08T15:48:18;7.88;;;5.20;;
27039;SDS011;14589;51.578;7.306;2023-04-08T15:50:49;9.13;;;5.78;;
27039;SDS011;14589;51.578;7.306;2023-04-08T15:53:19;9.00;;;4.80;;
27039;SDS011;14589;51.578;7.306;2023-04-08T15:55:50;8.73;;;5.65;;
27039;SDS011;14589;51.578;7.306;2023-04-08T15:58:20;8.93;;;4.97;;
27039;SDS011;14589;51.578;7.306;2023-04-08T16:00:50;10.40;;;5.47;;
27039;SDS011;14589;51.578;7.306;2023-04-08T16:03:21;11.02;;;5.53;;
27039;SDS011;14589;51.578;7.306;2023-04-08T16:05:51;9.93;;;6.03;;
27039;SDS011;14589;51.578;7.306;2023-04-08T16:08:21;12.82;;;5.88;;
27039;SDS011;14589;51.578;7.306;2023-04-08T16:10:57;10.60;;;5.90;;
27039;SDS011;14589;51.578;7.306;2023-04-08T16:13:28;11.05;;;5.10;;
27039;SDS011;14589;51.578;7.306;2023-04-08T16:16:02;8.52;;;5.88;;
27039;SDS011;14589;51.578;7.306;2023-04-08T16:18:33;7.72;;;4.25;;
27039;SDS011;14589;51.578;7.306;2023-04-08T16:21:03;8.85;;;5.18;;
27039;SDS011;14589;51.578;7.306;2023-04-08T16:23:36;9.20;;;5.00;;
27039;SDS011;14589;51.578;7.306;2023-04-08T16:26:07;8.52;;;4.78;;
27039;SDS011;14589;51.578;7.306;2023-04-08T16:28:37;11.38;;;5.60;;
27039;SDS011;14589;51.578;7.306;2023-04-08T16:31:08;13.15;;;7.60;;
27039;SDS011;14589;51.578;7.306;2023-04-08T16:33:39;15.45;;;7.75;;
27039;SDS011;14589;51.578;7.306;2023-04-08T16:36:09;16.20;;;8.55;;
27039;SDS011;14589;51.578;7.306;2023-04-08T16:38:40;13.55;;;6.85;;
27039;SDS011;14589;51.578;7.306;2023-04-08T16:41:10;12.43;;;6.45;;
27039;SDS011;14589;51.578;7.306;2023-04-08T16:43:40;12.82;;;7.13;;
27039;SDS011;14589;51.578;7.306;2023-04-08T16:46:12;14.18;;;7.78;;
27039;SDS011;14589;51.578;7.306;2023-04-08T16:48:45;11.85;;;6.72;;
27039;SDS011;14589;51.578;7.306;2023-04-08T16:51:15;13.93;;;7.70;;
27039;SDS011;14589;51.578;7.306;2023-04-08T16:53:46;10.65;;;7.05;;
27039;SDS011;14589;51.578;7.306;2023-04-08T16:56:16;20.90;;;11.10;;
27039;SDS011;14589;51.578;7.306;2023-04-08T16:58:47;15.73;;;9.40;;
27039;SDS011;14589;51.578;7.306;2023-04-08T17:01:18;14.30;;;7.65;;
27039;SDS011;14589;51.578;7.306;2023-04-08T17:03:48;16.20;;;8.93;;
27039;SDS011;14589;51.578;7.306;2023-04-08T17:06:21;30.33;;;17.73;;
27039;SDS011;14589;51.578;7.306;2023-04-08T17:08:51;15.45;;;8.77;;
27039;SDS011;14589;51.578;7.306;2023-04-08T17:11:21;18.50;;;10.52;;
27039;SDS011;14589;51.578;7.306;2023-04-08T17:13:52;14.52;;;8.65;;
27039;SDS011;14589;51.578;7.306;2023-04-08T17:16:22;15.77;;;9.20;;
27039;SDS011;14589;51.578;7.306;2023-04-08T17:18:53;26.52;;;18.75;;
27039;SDS011;14589;51.578;7.306;2023-04-08T17:21:23;15.73;;;8.48;;
27039;SDS011;14589;51.578;7.306;2023-04-08T17:23:53;19.60;;;9.75;;
27039;SDS011;14589;51.578;7.306;2023-04-08T17:26:24;15.23;;;8.80;;
27039;SDS011;14589;51.578;7.306;2023-04-08T17:28:55;19.27;;;10.77;;
27039;SDS011;14589;51.578;7.306;2023-04-08T17:31:26;16.05;;;9.45;;
27039;SDS011;14589;51.578;7.306;2023-04-08T17:33:56;20.15;;;10.05;;
27039;SDS011;14589;51.578;7.306;2023-04-08T17:36:27;22.27;;;12.50;;
27039;SDS011;14589;51.578;7.306;2023-04-08T17:38:57;19.73;;;11.38;;
27039;SDS011;14589;51.578;7.306;2023-04-08T17:41:27;23.17;;;12.32;;
27039;SDS011;14589;51.578;7.306;2023-04-08T17:43:58;24.08;;;13.32;;
27039;SDS011;14589;51.578;7.306;2023-04-08T17:46:29;34.53;;;15.43;;
27039;SDS011;14589;51.578;7.306;2023-04-08T17:49:01;31.23;;;16.30;;
27039;SDS011;14589;51.578;7.306;2023-04-08T17:51:32;25.17;;;12.82;;
27039;SDS011;14589;51.578;7.306;2023-04-08T17:54:03;29.30;;;15.75;;
27039;SDS011;14589;51.578;7.306;2023-04-08T17:56:34;29.63;;;13.38;;
27039;SDS011;14589;51.578;7.306;2023-04-08T17:59:05;28.42;;;15.77;;
27039;SDS011;14589;51.578;7.306;2023-04-08T18:01:36;31.27;;;14.90;;
27039;SDS011;14589;51.578;7.306;2023-04-08T18:04:06;35.30;;;18.45;;
27039;SDS011;14589;51.578;7.306;2023-04-08T18:06:37;29.20;;;14.45;;
27039;SDS011;14589;51.578;7.306;2023-04-08T18:09:07;30.52;;;16.85;;
27039;SDS011;14589;51.578;7.306;2023-04-08T18:11:38;49.42;;;25.80;;
27039;SDS011;14589;51.578;7.306;2023-04-08T18:14:08;135.10;;;54.78;;
27039;SDS011;14589;51.578;7.306;2023-04-08T18:16:38;59.17;;;27.30;;
27039;SDS011;14589;51.578;7.306;2023-04-08T18:19:10;35.03;;;17.70;;
27039;SDS011;14589;51.578;7.306;2023-04-08T18:21:41;34.85;;;16.65;;
27039;SDS011;14589;51.578;7.306;2023-04-08T18:24:12;43.90;;;22.70;;
27039;SDS011;14589;51.578;7.306;2023-04-08T18:26:42;32.45;;;17.70;;
27039;SDS011;14589;51.578;7.306;2023-04-08T18:29:14;31.70;;;16.15;;
27039;SDS011;14589;51.578;7.306;2023-04-08T18:31:44;29.58;;;14.60;;
27039;SDS011;14589;51.578;7.306;2023-04-08T18:34:15;26.67;;;14.35;;
27039;SDS011;14589;51.578;7.306;2023-04-08T18:36:45;26.73;;;14.32;;
27039;SDS011;14589;51.578;7.306;2023-04-08T18:39:16;29.13;;;13.80;;
27039;SDS011;14589;51.578;7.306;2023-04-08T18:41:46;22.27;;;11.23;;
27039;SDS011;14589;51.578;7.306;2023-04-08T18:44:16;22.00;;;11.82;;
27039;SDS011;14589;51.578;7.306;2023-04-08T18:46:46;23.50;;;12.48;;
27039;SDS011;14589;51.578;7.306;2023-04-08T18:49:17;24.58;;;12.60;;
27039;SDS011;14589;51.578;7.306;2023-04-08T18:51:47;23.92;;;13.15;;
27039;SDS011;14589;51.578;7.306;2023-04-08T18:54:18;22.02;;;12.40;;
27039;SDS011;14589;51.578;7.306;2023-04-08T18:56:48;20.20;;;11.85;;
27039;SDS011;14589;51.578;7.306;2023-04-08T18:59:19;23.45;;;15.07;;
27039;SDS011;14589;51.578;7.306;2023-04-08T19:01:50;25.58;;;12.95;;
27039;SDS011;14589;51.578;7.306;2023-04-08T19:04:20;21.35;;;12.90;;
27039;SDS011;14589;51.578;7.306;2023-04-08T19:06:51;19.63;;;11.40;;
27039;SDS011;14589;51.578;7.306;2023-04-08T19:09:21;22.65;;;11.75;;
27039;SDS011;14589;51.578;7.306;2023-04-08T19:11:52;22.35;;;11.63;;
27039;SDS011;14589;51.578;7.306;2023-04-08T19:14:22;18.73;;;9.80;;
27039;SDS011;14589;51.578;7.306;2023-04-08T19:16:54;29.05;;;15.93;;
27039;SDS011;14589;51.578;7.306;2023-04-08T19:19:24;38.85;;;20.52;;
27039;SDS011;14589;51.578;7.306;2023-04-08T19:21:55;46.75;;;24.77;;
27039;SDS011;14589;51.578;7.306;2023-04-08T19:24:25;47.08;;;24.77;;
27039;SDS011;14589;51.578;7.306;2023-04-08T19:26:55;52.15;;;24.88;;
27039;SDS011;14589;51.578;7.306;2023-04-08T19:29:26;41.10;;;19.85;;
27039;SDS011;14589;51.578;7.306;2023-04-08T19:31:58;38.20;;;19.70;;
27039;SDS011;14589;51.578;7.306;2023-04-08T19:34:29;33.60;;;18.17;;
27039;SDS011;14589;51.578;7.306;2023-04-08T19:36:59;33.17;;;16.35;;
27039;SDS011;14589;51.578;7.306;2023-04-08T19:39:30;31.40;;;14.60;;
27039;SDS011;14589;51.578;7.306;2023-04-08T19:42:00;31.00;;;16.23;;
27039;SDS011;14589;51.578;7.306;2023-04-08T19:44:30;23.30;;;13.45;;
27039;SDS011;14589;51.578;7.306;2023-04-08T19:47:01;27.02;;;13.63;;
27039;SDS011;14589;51.578;7.306;2023-04-08T19:49:33;26.25;;;15.02;;
27039;SDS011;14589;51.578;7.306;2023-04-08T19:52:04;28.33;;;14.15;;
27039;SDS011;14589;51.578;7.306;2023-04-08T19:54:34;24.70;;;13.43;;
27039;SDS011;14589;51.578;7.306;2023-04-08T19:57:05;19.95;;;10.15;;
27039;SDS011;14589;51.578;7.306;2023-04-08T19:59:37;21.40;;;10.00;;
27039;SDS011;14589;51.578;7.306;2023-04-08T20:02:08;18.33;;;8.95;;
27039;SDS011;14589;51.578;7.306;2023-04-08T20:04:38;14.50;;;7.45;;
27039;SDS011;14589;51.578;7.306;2023-04-08T20:07:09;15.68;;;7.20;;
27039;SDS011;14589;51.578;7.306;2023-04-08T20:09:39;16.90;;;8.52;;
27039;SDS011;14589;51.578;7.306;2023-04-08T20:12:10;18.80;;;9.45;;
27039;SDS011;14589;51.578;7.306;2023-04-08T20:14:41;19.00;;;8.73;;
27039;SDS011;14589;51.578;7.306;2023-04-08T20:17:13;14.98;;;8.23;;
27039;SDS011;14589;51.578;7.306;2023-04-08T20:19:45;16.67;;;8.55;;
27039;SDS011;14589;51.578;7.306;2023-04-08T20:22:15;16.73;;;9.38;;
27039;SDS011;14589;51.578;7.306;2023-04-08T20:24:46;18.83;;;8.88;;